Maersk Saigon — D5OI4 — position and weather

sailwx.info

Track history (hours):
 
Tides and Currents Weather Stations Pressure Air Temp Water Temp Dewpoint Dewpoint Depression Visibility Wind Speed Wind Dir Waves Ship Positions

Maersk Saigon

Last reported at 2017-Sep-21 17:08 UTC. Time now 2017-Nov-24 00:24 UTC.
Position N 25°46' W 080°10'.
Warning: this ship's position is months out of date.

Length 331 m; draft 10.4 m.

Type: Ship (hazmat cat A). MMSI: 636092787.

Date/timePositionNaut miles runAvg speedWind from/ knotsBaromVisibWave heightAir tempDewpointWater temp
2017-Sep-21 17:08N 25°46' W 080°10'0 0.0
2017-Sep-21 16:59N 25°46' W 080°10'0 0.0
2017-Sep-21 16:29N 25°46' W 080°10'0 0.0
2017-Sep-21 15:59N 25°46' W 080°10'0 0.0
2017-Sep-21 15:25N 25°46' W 080°10'0 0.0
2017-Sep-21 14:58N 25°46' W 080°10'0 0.0
2017-Sep-21 14:28N 25°46' W 080°10'0 0.0
2017-Sep-21 13:58N 25°46' W 080°10'0 0.0
2017-Sep-21 13:28N 25°46' W 080°10'0 0.0
2017-Sep-21 13:00N 25°46' W 080°10'0 0.0
2017-Sep-21 12:30N 25°46' W 080°10'0 0.0
2017-Sep-21 12:00N 25°46' W 080°10'0 0.0
2017-Sep-21 11:30N 25°46' W 080°10'0 0.0
2017-Sep-21 10:59N 25°46' W 080°10'0 0.0
2017-Sep-21 10:29N 25°46' W 080°10'0 0.0
2017-Sep-21 09:59N 25°46' W 080°10'0 0.0
2017-Sep-21 09:29N 25°46' W 080°10'0 0.0
2017-Sep-21 08:53N 25°46' W 080°10'0 0.0
2017-Sep-21 08:30N 25°46' W 080°10'0 0.7
2017-Sep-21 08:00N 25°46' W 080°10'2 4.1
2017-Sep-21 07:30N 25°46' W 080°08'5 9.6
2017-Sep-21 07:00N 25°47' W 080°03'4 8.2
2017-Sep-21 06:30N 25°51' W 080°01'714.0
2017-Sep-21 06:00N 25°58' W 080°01'815.6
2017-Sep-21 05:30N 26°06' W 079°60'815.6
2017-Sep-21 05:00N 26°13' W 079°59'714.7
2017-Sep-21 04:30N 26°21' W 079°58'917.5
2017-Sep-21 04:00N 26°30' W 079°57'917.7
2017-Sep-21 03:31N 26°38' W 079°57'917.0
2017-Sep-21 03:00N 26°47' W 079°56'815.4
2017-Sep-21 02:30N 26°55' W 079°56'815.3
2017-Sep-21 02:00N 27°02' W 079°56'28313.8
2017-Sep-20 05:28N 31°45' W 079°39'1013.2
2017-Sep-20 04:42N 31°55' W 079°39'313.1
2017-Sep-20 04:30N 31°58' W 079°39'713.4
2017-Sep-20 04:00N 32°04' W 079°38'713.6
2017-Sep-20 03:30N 32°11' W 079°38'713.6
2017-Sep-20 03:00N 32°18' W 079°37'713.5
2017-Sep-20 02:30N 32°25' W 079°37'713.7
2017-Sep-20 01:57N 32°32' W 079°38'613.6
2017-Sep-20 01:30N 32°38' W 079°39'315 8.5
2017-Sep-18 12:23N 36°44' W 075°40'717.4
2017-Sep-18 12:00N 36°49' W 075°46'714.8
2017-Sep-18 11:30N 36°53' W 075°54'612.9
2017-Sep-18 11:00N 36°57' W 076°00'510.4
2017-Sep-18 10:30N 36°58' W 076°06'815.6
2017-Sep-18 10:00N 37°00' W 076°16'510.8
2017-Sep-18 09:31N 36°57' W 076°20'4 7.7
2017-Sep-18 09:00N 36°53' W 076°20'1 1.3
2017-Sep-18 08:29N 36°52' W 076°21'0 0.0
2017-Sep-18 07:58N 36°52' W 076°21'0 0.0
2017-Sep-18 07:28N 36°52' W 076°21'0 0.0
2017-Sep-18 06:58N 36°52' W 076°21'0 0.0
2017-Sep-18 06:28N 36°52' W 076°21'0 0.0
2017-Sep-18 06:00N 36°52' W 076°21'0 0.0
2017-Sep-18 05:30N 36°52' W 076°21'0 0.0
2017-Sep-18 05:00N 36°52' W 076°21'0 0.0
2017-Sep-18 04:30N 36°52' W 076°21'0 0.0
2017-Sep-18 04:00N 36°52' W 076°21'0 0.0
2017-Sep-18 03:29N 36°52' W 076°21'0 0.0
2017-Sep-18 02:59N 36°52' W 076°21'0 0.0
2017-Sep-18 02:29N 36°52' W 076°21'0 0.0
2017-Sep-18 01:59N 36°52' W 076°21'0 0.0
2017-Sep-18 01:28N 36°52' W 076°21'0 0.0
2017-Sep-18 00:58N 36°52' W 076°21'0 0.0
2017-Sep-18 00:28N 36°52' W 076°21'0 0.0
2017-Sep-17 23:58N 36°52' W 076°21'0 0.0
2017-Sep-17 23:28N 36°52' W 076°21'0 0.0
2017-Sep-17 23:00N 36°52' W 076°21'0 0.0
2017-Sep-17 22:30N 36°52' W 076°21'0 0.0
2017-Sep-17 22:00N 36°52' W 076°21'0 0.0
2017-Sep-17 21:30N 36°52' W 076°21'0 0.0
2017-Sep-17 21:00N 36°52' W 076°21'0 0.0
2017-Sep-17 20:29N 36°52' W 076°21'0 0.0
2017-Sep-17 19:59N 36°52' W 076°21'0 0.0
2017-Sep-17 19:29N 36°52' W 076°21'0 0.0
2017-Sep-17 18:59N 36°52' W 076°21'0 0.0
2017-Sep-17 18:28N 36°52' W 076°21'0 0.0
2017-Sep-17 17:58N 36°52' W 076°21'0 0.0
2017-Sep-17 17:28N 36°52' W 076°21'0 0.0
2017-Sep-17 16:58N 36°52' W 076°21'0 0.0
2017-Sep-17 16:28N 36°52' W 076°21'0 0.0
2017-Sep-17 16:00N 36°52' W 076°21'0 0.0
2017-Sep-17 15:30N 36°52' W 076°21'0 0.0
2017-Sep-17 14:57N 36°52' W 076°21'0 0.0
2017-Sep-17 14:30N 36°52' W 076°21'0 0.0
2017-Sep-17 13:56N 36°52' W 076°21'0 0.0
2017-Sep-17 13:29N 36°52' W 076°21'0 0.0
2017-Sep-17 12:59N 36°52' W 076°21'0 0.0
2017-Sep-17 12:29N 36°52' W 076°21'0 0.0
2017-Sep-17 11:59N 36°52' W 076°21'0 0.0
2017-Sep-17 11:28N 36°52' W 076°21'0 0.0
2017-Sep-17 10:58N 36°52' W 076°21'0 0.0
2017-Sep-17 10:28N 36°52' W 076°21'0 0.0
2017-Sep-17 09:59N 36°52' W 076°21'1 1.5
2017-Sep-17 09:30N 36°53' W 076°20'3 5.9
2017-Sep-17 09:00N 36°56' W 076°20'5 9.4
2017-Sep-17 08:31N 36°60' W 076°18'713.9
2017-Sep-17 08:00N 36°59' W 076°09'917.1
2017-Sep-17 07:31N 36°57' W 075°59'5 9.6
2017-Sep-17 07:01N 36°54' W 075°54'612.6
2017-Sep-17 06:30N 36°51' W 075°47'917.9
2017-Sep-17 06:00N 36°44' W 075°40'917.8
2017-Sep-17 05:31N 36°36' W 075°34'917.3
2017-Sep-17 05:00N 36°28' W 075°30'917.7
2017-Sep-17 04:30N 36°21' W 075°24'917.0
2017-Sep-17 04:00N 36°13' W 075°20'816.5
2017-Sep-17 03:30N 36°05' W 075°17'816.6
2017-Sep-17 03:00N 35°57' W 075°17'816.4
2017-Sep-17 02:30N 35°49' W 075°15'816.4
2017-Sep-17 01:59N 35°40' W 075°15'816.4
2017-Sep-17 01:30N 35°32' W 075°14'1016.4
2017-Sep-17 00:55N 35°23' W 075°13'1016.4
2017-Sep-17 00:18N 35°13' W 075°12'717.4
2017-Sep-16 23:54N 35°06' W 075°15'5317.0
2017-Sep-16 20:46N 34°31' W 076°04'517.0
2017-Sep-16 20:27N 34°27' W 076°08'817.3
2017-Sep-16 20:00N 34°22' W 076°16'817.2
2017-Sep-16 19:30N 34°16' W 076°23'2116.6
2017-Sep-16 18:16N 34°03' W 076°42'416.2
2017-Sep-16 17:59N 33°60' W 076°46'816.2
2017-Sep-16 17:30N 33°55' W 076°53'7815.3
2017-Sep-16 12:27N 33°08' W 078°07'714.8
2017-Sep-16 12:00N 33°04' W 078°14'2314.4
2017-Sep-16 10:23N 32°52' W 078°38'514.6
2017-Sep-16 10:00N 32°49' W 078°43'714.7
2017-Sep-16 09:31N 32°45' W 078°50'714.8
2017-Sep-16 09:00N 32°41' W 078°58'714.9
2017-Sep-16 08:31N 32°37' W 079°05'714.9
2017-Sep-16 08:01N 32°34' W 079°13'714.7
2017-Sep-16 07:30N 32°30' W 079°20'714.6
2017-Sep-16 07:00N 32°26' W 079°28'1214.5
2017-Sep-16 06:11N 32°19' W 079°40'840.2
2017-Sep-16 06:00N 32°12' W 079°42'6356.1 360 / 71017.010.8 26.0 28.0
2017-Sep-16 05:59N 32°18' W 079°43'714.2
2017-Sep-16 05:31N 32°14' W 079°49'714.2
2017-Sep-16 05:01N 32°11' W 079°56'714.2
2017-Sep-16 04:31N 32°07' W 080°04'714.1
2017-Sep-16 04:01N 32°03' W 080°10'713.9
2017-Sep-16 03:31N 31°59' W 080°17'713.7
2017-Sep-16 03:01N 31°56' W 080°25'714.1
2017-Sep-16 02:30N 31°56' W 080°33'713.8
2017-Sep-16 01:58N 31°57' W 080°42'612.7
2017-Sep-16 01:30N 32°00' W 080°48'714.2
2017-Sep-16 01:00N 32°02' W 080°55'611.8
2017-Sep-16 00:30N 32°05' W 081°01'4 7.8
2017-Sep-16 00:00N 32°05' W 081°06'2 4.6
2017-Sep-15 23:30N 32°07' W 081°08'1 1.8
2017-Sep-15 23:00N 32°08' W 081°08'0 0.1
2017-Sep-15 22:29N 32°08' W 081°08'0 0.0
2017-Sep-15 21:59N 32°08' W 081°08'0 0.0
2017-Sep-15 21:29N 32°08' W 081°08'0 0.0
2017-Sep-15 20:58N 32°08' W 081°08'0 0.0
2017-Sep-15 20:28N 32°08' W 081°08'0 0.0
2017-Sep-15 19:58N 32°08' W 081°08'0 0.0
2017-Sep-15 19:28N 32°08' W 081°08'0 0.0
2017-Sep-15 18:58N 32°08' W 081°08'0 0.0
2017-Sep-15 18:09N 32°08' W 081°08'0 0.0
2017-Sep-15 17:57N 32°08' W 081°08'0 0.0
2017-Sep-15 17:27N 32°08' W 081°08'0 0.0
2017-Sep-15 16:51N 32°08' W 081°08'0 0.0
2017-Sep-15 16:26N 32°08' W 081°08'0 0.0
2017-Sep-15 15:50N 32°08' W 081°08'0 0.0
2017-Sep-15 15:26N 32°08' W 081°08'0 0.0
2017-Sep-15 14:56N 32°08' W 081°08'0 0.0
2017-Sep-15 14:20N 32°08' W 081°08'0 0.0
2017-Sep-15 13:55N 32°08' W 081°08'0 0.0
2017-Sep-15 13:25N 32°08' W 081°08'0 0.0
2017-Sep-15 12:55N 32°08' W 081°08'0 0.0
2017-Sep-15 12:25N 32°08' W 081°08'0 0.0
2017-Sep-15 11:48N 32°08' W 081°08'0 0.0
2017-Sep-15 11:30N 32°08' W 081°08'0 0.0
2017-Sep-15 11:00N 32°08' W 081°08'0 0.0
2017-Sep-15 10:24N 32°08' W 081°08'0 0.0
2017-Sep-15 09:54N 32°08' W 081°08'0 0.0
2017-Sep-15 09:23N 32°08' W 081°08'0 0.0
2017-Sep-15 08:53N 32°08' W 081°08'0 0.0
2017-Sep-15 08:23N 32°08' W 081°08'0 0.0
2017-Sep-15 07:53N 32°08' W 081°08'0 0.0
2017-Sep-15 07:29N 32°08' W 081°08'0 0.0
2017-Sep-15 06:34N 32°08' W 081°08'0 0.1
2017-Sep-15 06:28N 32°08' W 081°08'0 0.0
2017-Sep-15 05:58N 32°08' W 081°08'0 0.0
2017-Sep-15 05:28N 32°08' W 081°08'0 0.0
2017-Sep-15 03:51N 32°08' W 081°08'0 0.0
2017-Sep-15 03:09N 32°08' W 081°08'0 0.0
2017-Sep-15 02:51N 32°08' W 081°08'0 0.0
2017-Sep-15 02:26N 32°08' W 081°08'0 0.0
2017-Sep-15 01:56N 32°08' W 081°08'0 0.0
2017-Sep-15 01:26N 32°08' W 081°08'0 0.0
2017-Sep-15 00:56N 32°08' W 081°08'0 0.0
2017-Sep-15 00:26N 32°08' W 081°08'0 0.0
2017-Sep-14 23:55N 32°08' W 081°08'0 0.0
2017-Sep-14 23:19N 32°08' W 081°08'0 0.0
2017-Sep-14 22:55N 32°08' W 081°08'0 0.0
2017-Sep-14 22:19N 32°08' W 081°08'0 0.0
2017-Sep-14 21:54N 32°08' W 081°08'0 0.0
2017-Sep-14 21:30N 32°08' W 081°08'0 0.2
2017-Sep-14 21:00N 32°08' W 081°08'2 3.7
2017-Sep-14 20:30N 32°06' W 081°07'3 5.5
2017-Sep-14 20:00N 32°05' W 081°04'4 7.6
2017-Sep-14 19:30N 32°06' W 081°00'611.4
2017-Sep-14 19:00N 32°02' W 080°55'612.8
2017-Sep-14 18:30N 32°01' W 080°48'815.7
2017-Sep-14 18:00N 31°57' W 080°40'611.4
2017-Sep-14 17:30N 31°56' W 080°33'714.7
2017-Sep-14 17:00N 31°57' W 080°25'5 1.5
2017-Sep-14 13:49N 31°60' W 080°20'0 0.2
2017-Sep-14 13:25N 31°60' W 080°20'0 0.1
2017-Sep-14 12:49N 31°60' W 080°20'0 0.1
2017-Sep-14 12:26N 31°60' W 080°20'0 0.3
2017-Sep-14 11:55N 31°60' W 080°20'0 0.1
2017-Sep-14 10:48N 31°60' W 080°20'0 0.4
2017-Sep-14 10:18N 31°60' W 080°20'0 0.0
2017-Sep-14 10:00N 31°60' W 080°20'0 0.0
2017-Sep-14 09:30N 31°60' W 080°20'0 0.1
2017-Sep-14 08:59N 31°60' W 080°20'0 0.0
2017-Sep-14 08:29N 31°60' W 080°20'0 0.1
2017-Sep-14 07:47N 31°60' W 080°20'0 0.0
2017-Sep-14 03:15N 31°60' W 080°21'0 0.1
2017-Sep-14 02:57N 31°60' W 080°21'0 0.1
2017-Sep-14 00:01N 31°60' W 080°20'0 0.2
2017-Sep-13 23:55N 31°60' W 080°20'0 0.1
2017-Sep-13 23:07N 31°60' W 080°20'0 0.0
2017-Sep-13 22:55N 31°60' W 080°20'0 0.0
2017-Sep-13 22:25N 31°60' W 080°20'0 0.0
2017-Sep-13 21:54N 31°60' W 080°20'0 0.1
2017-Sep-13 21:30N 31°60' W 080°20'0 0.1
2017-Sep-13 16:34N 31°60' W 080°21'0 0.1
2017-Sep-13 16:28N 31°60' W 080°21'0 0.0
2017-Sep-13 14:57N 31°60' W 080°21'0 0.0
2017-Sep-13 14:15N 31°60' W 080°21'0 0.0
2017-Sep-13 13:57N 31°60' W 080°21'0 0.0
2017-Sep-13 13:27N 31°60' W 080°21'0 0.0
2017-Sep-13 12:57N 31°60' W 080°21'0 0.0
2017-Sep-13 12:26N 31°60' W 080°21'0 0.3
2017-Sep-13 11:56N 31°60' W 080°20'0 0.3
2017-Sep-13 11:26N 31°60' W 080°20'0 0.1
2017-Sep-13 10:56N 31°60' W 080°20'0 0.0
2017-Sep-13 10:26N 31°60' W 080°20'0 0.0
2017-Sep-13 09:55N 31°60' W 080°20'0 0.0
2017-Sep-13 09:25N 31°60' W 080°20'0 0.1
2017-Sep-13 08:55N 31°60' W 080°20'0 0.1
2017-Sep-13 08:25N 31°60' W 080°20'0 0.1
2017-Sep-13 06:00N 31°60' W 080°21'2 4.1
2017-Sep-13 05:29N 31°58' W 080°22'510.4
2017-Sep-13 05:00N 31°54' W 080°25'714.0
2017-Sep-13 04:30N 31°48' W 080°22'  
Track history (hours):
 
Tides and Currents Weather Stations Pressure Air Temp Water Temp Dewpoint Dewpoint Depression Visibility Wind Speed Wind Dir Waves Ship Positions

Maersk Saigon

Last reported at 2017-Sep-21 17:08 UTC. Time now 2017-Nov-24 00:24 UTC.
Position N 25°46' W 080°10'.
Warning: this ship's position is months out of date.

Length 331 m; draft 10.4 m.

Type: Ship (hazmat cat A). MMSI: 636092787.

Date/timePositionNaut miles runAvg speedWind from/ knotsBaromVisibWave heightAir tempDewpointWater temp
2017-Sep-21 17:08N 25°46' W 080°10'0 0.0
2017-Sep-21 16:59N 25°46' W 080°10'0 0.0
2017-Sep-21 16:29N 25°46' W 080°10'0 0.0
2017-Sep-21 15:59N 25°46' W 080°10'0 0.0
2017-Sep-21 15:25N 25°46' W 080°10'0 0.0
2017-Sep-21 14:58N 25°46' W 080°10'0 0.0
2017-Sep-21 14:28N 25°46' W 080°10'0 0.0
2017-Sep-21 13:58N 25°46' W 080°10'0 0.0
2017-Sep-21 13:28N 25°46' W 080°10'0 0.0
2017-Sep-21 13:00N 25°46' W 080°10'0 0.0
2017-Sep-21 12:30N 25°46' W 080°10'0 0.0
2017-Sep-21 12:00N 25°46' W 080°10'0 0.0
2017-Sep-21 11:30N 25°46' W 080°10'0 0.0
2017-Sep-21 10:59N 25°46' W 080°10'0 0.0
2017-Sep-21 10:29N 25°46' W 080°10'0 0.0
2017-Sep-21 09:59N 25°46' W 080°10'0 0.0
2017-Sep-21 09:29N 25°46' W 080°10'0 0.0
2017-Sep-21 08:53N 25°46' W 080°10'0 0.0
2017-Sep-21 08:30N 25°46' W 080°10'0 0.7
2017-Sep-21 08:00N 25°46' W 080°10'2 4.1
2017-Sep-21 07:30N 25°46' W 080°08'5 9.6
2017-Sep-21 07:00N 25°47' W 080°03'4 8.2
2017-Sep-21 06:30N 25°51' W 080°01'714.0
2017-Sep-21 06:00N 25°58' W 080°01'815.6
2017-Sep-21 05:30N 26°06' W 079°60'815.6
2017-Sep-21 05:00N 26°13' W 079°59'714.7
2017-Sep-21 04:30N 26°21' W 079°58'917.5
2017-Sep-21 04:00N 26°30' W 079°57'917.7
2017-Sep-21 03:31N 26°38' W 079°57'917.0
2017-Sep-21 03:00N 26°47' W 079°56'815.4
2017-Sep-21 02:30N 26°55' W 079°56'815.3
2017-Sep-21 02:00N 27°02' W 079°56'28313.8
2017-Sep-20 05:28N 31°45' W 079°39'1013.2
2017-Sep-20 04:42N 31°55' W 079°39'313.1
2017-Sep-20 04:30N 31°58' W 079°39'713.4
2017-Sep-20 04:00N 32°04' W 079°38'713.6
2017-Sep-20 03:30N 32°11' W 079°38'713.6
2017-Sep-20 03:00N 32°18' W 079°37'713.5
2017-Sep-20 02:30N 32°25' W 079°37'713.7
2017-Sep-20 01:57N 32°32' W 079°38'613.6
2017-Sep-20 01:30N 32°38' W 079°39'315 8.5
2017-Sep-18 12:23N 36°44' W 075°40'717.4
2017-Sep-18 12:00N 36°49' W 075°46'714.8
2017-Sep-18 11:30N 36°53' W 075°54'612.9
2017-Sep-18 11:00N 36°57' W 076°00'510.4
2017-Sep-18 10:30N 36°58' W 076°06'815.6
2017-Sep-18 10:00N 37°00' W 076°16'510.8
2017-Sep-18 09:31N 36°57' W 076°20'4 7.7
2017-Sep-18 09:00N 36°53' W 076°20'1 1.3
2017-Sep-18 08:29N 36°52' W 076°21'0 0.0
2017-Sep-18 07:58N 36°52' W 076°21'0 0.0
2017-Sep-18 07:28N 36°52' W 076°21'0 0.0
2017-Sep-18 06:58N 36°52' W 076°21'0 0.0
2017-Sep-18 06:28N 36°52' W 076°21'0 0.0
2017-Sep-18 06:00N 36°52' W 076°21'0 0.0
2017-Sep-18 05:30N 36°52' W 076°21'0 0.0
2017-Sep-18 05:00N 36°52' W 076°21'0 0.0
2017-Sep-18 04:30N 36°52' W 076°21'0 0.0
2017-Sep-18 04:00N 36°52' W 076°21'0 0.0
2017-Sep-18 03:29N 36°52' W 076°21'0 0.0
2017-Sep-18 02:59N 36°52' W 076°21'0 0.0
2017-Sep-18 02:29N 36°52' W 076°21'0 0.0
2017-Sep-18 01:59N 36°52' W 076°21'0 0.0
2017-Sep-18 01:28N 36°52' W 076°21'0 0.0
2017-Sep-18 00:58N 36°52' W 076°21'0 0.0
2017-Sep-18 00:28N 36°52' W 076°21'0 0.0
2017-Sep-17 23:58N 36°52' W 076°21'0 0.0
2017-Sep-17 23:28N 36°52' W 076°21'0 0.0
2017-Sep-17 23:00N 36°52' W 076°21'0 0.0
2017-Sep-17 22:30N 36°52' W 076°21'0 0.0
2017-Sep-17 22:00N 36°52' W 076°21'0 0.0
2017-Sep-17 21:30N 36°52' W 076°21'0 0.0
2017-Sep-17 21:00N 36°52' W 076°21'0 0.0
2017-Sep-17 20:29N 36°52' W 076°21'0 0.0
2017-Sep-17 19:59N 36°52' W 076°21'0 0.0
2017-Sep-17 19:29N 36°52' W 076°21'0 0.0
2017-Sep-17 18:59N 36°52' W 076°21'0 0.0
2017-Sep-17 18:28N 36°52' W 076°21'0 0.0
2017-Sep-17 17:58N 36°52' W 076°21'0 0.0
2017-Sep-17 17:28N 36°52' W 076°21'0 0.0
2017-Sep-17 16:58N 36°52' W 076°21'0 0.0
2017-Sep-17 16:28N 36°52' W 076°21'0 0.0
2017-Sep-17 16:00N 36°52' W 076°21'0 0.0
2017-Sep-17 15:30N 36°52' W 076°21'0 0.0
2017-Sep-17 14:57N 36°52' W 076°21'0 0.0
2017-Sep-17 14:30N 36°52' W 076°21'0 0.0
2017-Sep-17 13:56N 36°52' W 076°21'0 0.0
2017-Sep-17 13:29N 36°52' W 076°21'0 0.0
2017-Sep-17 12:59N 36°52' W 076°21'0 0.0
2017-Sep-17 12:29N 36°52' W 076°21'0 0.0
2017-Sep-17 11:59N 36°52' W 076°21'0 0.0
2017-Sep-17 11:28N 36°52' W 076°21'0 0.0
2017-Sep-17 10:58N 36°52' W 076°21'0 0.0
2017-Sep-17 10:28N 36°52' W 076°21'0 0.0
2017-Sep-17 09:59N 36°52' W 076°21'1 1.5
2017-Sep-17 09:30N 36°53' W 076°20'3 5.9
2017-Sep-17 09:00N 36°56' W 076°20'5 9.4
2017-Sep-17 08:31N 36°60' W 076°18'713.9
2017-Sep-17 08:00N 36°59' W 076°09'917.1
2017-Sep-17 07:31N 36°57' W 075°59'5 9.6
2017-Sep-17 07:01N 36°54' W 075°54'612.6
2017-Sep-17 06:30N 36°51' W 075°47'917.9
2017-Sep-17 06:00N 36°44' W 075°40'917.8
2017-Sep-17 05:31N 36°36' W 075°34'917.3
2017-Sep-17 05:00N 36°28' W 075°30'917.7
2017-Sep-17 04:30N 36°21' W 075°24'917.0
2017-Sep-17 04:00N 36°13' W 075°20'816.5
2017-Sep-17 03:30N 36°05' W 075°17'816.6
2017-Sep-17 03:00N 35°57' W 075°17'816.4
2017-Sep-17 02:30N 35°49' W 075°15'816.4
2017-Sep-17 01:59N 35°40' W 075°15'816.4
2017-Sep-17 01:30N 35°32' W 075°14'1016.4
2017-Sep-17 00:55N 35°23' W 075°13'1016.4
2017-Sep-17 00:18N 35°13' W 075°12'717.4
2017-Sep-16 23:54N 35°06' W 075°15'5317.0
2017-Sep-16 20:46N 34°31' W 076°04'517.0
2017-Sep-16 20:27N 34°27' W 076°08'817.3
2017-Sep-16 20:00N 34°22' W 076°16'817.2
2017-Sep-16 19:30N 34°16' W 076°23'2116.6
2017-Sep-16 18:16N 34°03' W 076°42'416.2
2017-Sep-16 17:59N 33°60' W 076°46'816.2
2017-Sep-16 17:30N 33°55' W 076°53'7815.3
2017-Sep-16 12:27N 33°08' W 078°07'714.8
2017-Sep-16 12:00N 33°04' W 078°14'2314.4
2017-Sep-16 10:23N 32°52' W 078°38'514.6
2017-Sep-16 10:00N 32°49' W 078°43'714.7
2017-Sep-16 09:31N 32°45' W 078°50'714.8
2017-Sep-16 09:00N 32°41' W 078°58'714.9
2017-Sep-16 08:31N 32°37' W 079°05'714.9
2017-Sep-16 08:01N 32°34' W 079°13'714.7
2017-Sep-16 07:30N 32°30' W 079°20'714.6
2017-Sep-16 07:00N 32°26' W 079°28'1214.5
2017-Sep-16 06:11N 32°19' W 079°40'840.2
2017-Sep-16 06:00N 32°12' W 079°42'6356.1 360 / 71017.010.8 26.0 28.0
2017-Sep-16 05:59N 32°18' W 079°43'714.2
2017-Sep-16 05:31N 32°14' W 079°49'714.2
2017-Sep-16 05:01N 32°11' W 079°56'714.2
2017-Sep-16 04:31N 32°07' W 080°04'714.1
2017-Sep-16 04:01N 32°03' W 080°10'713.9
2017-Sep-16 03:31N 31°59' W 080°17'713.7
2017-Sep-16 03:01N 31°56' W 080°25'714.1
2017-Sep-16 02:30N 31°56' W 080°33'713.8
2017-Sep-16 01:58N 31°57' W 080°42'612.7
2017-Sep-16 01:30N 32°00' W 080°48'714.2
2017-Sep-16 01:00N 32°02' W 080°55'611.8
2017-Sep-16 00:30N 32°05' W 081°01'4 7.8
2017-Sep-16 00:00N 32°05' W 081°06'2 4.6
2017-Sep-15 23:30N 32°07' W 081°08'1 1.8
2017-Sep-15 23:00N 32°08' W 081°08'0 0.1
2017-Sep-15 22:29N 32°08' W 081°08'0 0.0
2017-Sep-15 21:59N 32°08' W 081°08'0 0.0
2017-Sep-15 21:29N 32°08' W 081°08'0 0.0
2017-Sep-15 20:58N 32°08' W 081°08'0 0.0
2017-Sep-15 20:28N 32°08' W 081°08'0 0.0
2017-Sep-15 19:58N 32°08' W 081°08'0 0.0
2017-Sep-15 19:28N 32°08' W 081°08'0 0.0
2017-Sep-15 18:58N 32°08' W 081°08'0 0.0
2017-Sep-15 18:09N 32°08' W 081°08'0 0.0
2017-Sep-15 17:57N 32°08' W 081°08'0 0.0
2017-Sep-15 17:27N 32°08' W 081°08'0 0.0
2017-Sep-15 16:51N 32°08' W 081°08'0 0.0
2017-Sep-15 16:26N 32°08' W 081°08'0 0.0
2017-Sep-15 15:50N 32°08' W 081°08'0 0.0
2017-Sep-15 15:26N 32°08' W 081°08'0 0.0
2017-Sep-15 14:56N 32°08' W 081°08'0 0.0
2017-Sep-15 14:20N 32°08' W 081°08'0 0.0
2017-Sep-15 13:55N 32°08' W 081°08'0 0.0
2017-Sep-15 13:25N 32°08' W 081°08'0 0.0
2017-Sep-15 12:55N 32°08' W 081°08'0 0.0
2017-Sep-15 12:25N 32°08' W 081°08'0 0.0
2017-Sep-15 11:48N 32°08' W 081°08'0 0.0
2017-Sep-15 11:30N 32°08' W 081°08'0 0.0
2017-Sep-15 11:00N 32°08' W 081°08'0 0.0
2017-Sep-15 10:24N 32°08' W 081°08'0 0.0
2017-Sep-15 09:54N 32°08' W 081°08'0 0.0
2017-Sep-15 09:23N 32°08' W 081°08'0 0.0
2017-Sep-15 08:53N 32°08' W 081°08'0 0.0
2017-Sep-15 08:23N 32°08' W 081°08'0 0.0
2017-Sep-15 07:53N 32°08' W 081°08'0 0.0
2017-Sep-15 07:29N 32°08' W 081°08'0 0.0
2017-Sep-15 06:34N 32°08' W 081°08'0 0.1
2017-Sep-15 06:28N 32°08' W 081°08'0 0.0
2017-Sep-15 05:58N 32°08' W 081°08'0 0.0
2017-Sep-15 05:28N 32°08' W 081°08'0 0.0
2017-Sep-15 03:51N 32°08' W 081°08'0 0.0
2017-Sep-15 03:09N 32°08' W 081°08'0 0.0
2017-Sep-15 02:51N 32°08' W 081°08'0 0.0
2017-Sep-15 02:26N 32°08' W 081°08'0 0.0
2017-Sep-15 01:56N 32°08' W 081°08'0 0.0
2017-Sep-15 01:26N 32°08' W 081°08'0 0.0
2017-Sep-15 00:56N 32°08' W 081°08'0 0.0
2017-Sep-15 00:26N 32°08' W 081°08'0 0.0
2017-Sep-14 23:55N 32°08' W 081°08'0 0.0
2017-Sep-14 23:19N 32°08' W 081°08'0 0.0
2017-Sep-14 22:55N 32°08' W 081°08'0 0.0
2017-Sep-14 22:19N 32°08' W 081°08'0 0.0
2017-Sep-14 21:54N 32°08' W 081°08'0 0.0
2017-Sep-14 21:30N 32°08' W 081°08'0 0.2
2017-Sep-14 21:00N 32°08' W 081°08'2 3.7
2017-Sep-14 20:30N 32°06' W 081°07'3 5.5
2017-Sep-14 20:00N 32°05' W 081°04'4 7.6
2017-Sep-14 19:30N 32°06' W 081°00'611.4
2017-Sep-14 19:00N 32°02' W 080°55'612.8
2017-Sep-14 18:30N 32°01' W 080°48'815.7
2017-Sep-14 18:00N 31°57' W 080°40'611.4
2017-Sep-14 17:30N 31°56' W 080°33'714.7
2017-Sep-14 17:00N 31°57' W 080°25'5 1.5
2017-Sep-14 13:49N 31°60' W 080°20'0 0.2
2017-Sep-14 13:25N 31°60' W 080°20'0 0.1
2017-Sep-14 12:49N 31°60' W 080°20'0 0.1
2017-Sep-14 12:26N 31°60' W 080°20'0 0.3
2017-Sep-14 11:55N 31°60' W 080°20'0 0.1
2017-Sep-14 10:48N 31°60' W 080°20'0 0.4
2017-Sep-14 10:18N 31°60' W 080°20'0 0.0
2017-Sep-14 10:00N 31°60' W 080°20'0 0.0
2017-Sep-14 09:30N 31°60' W 080°20'0 0.1
2017-Sep-14 08:59N 31°60' W 080°20'0 0.0
2017-Sep-14 08:29N 31°60' W 080°20'0 0.1
2017-Sep-14 07:47N 31°60' W 080°20'0 0.0
2017-Sep-14 03:15N 31°60' W 080°21'0 0.1
2017-Sep-14 02:57N 31°60' W 080°21'0 0.1
2017-Sep-14 00:01N 31°60' W 080°20'0 0.2
2017-Sep-13 23:55N 31°60' W 080°20'0 0.1
2017-Sep-13 23:07N 31°60' W 080°20'0 0.0
2017-Sep-13 22:55N 31°60' W 080°20'0 0.0
2017-Sep-13 22:25N 31°60' W 080°20'0 0.0
2017-Sep-13 21:54N 31°60' W 080°20'0 0.1
2017-Sep-13 21:30N 31°60' W 080°20'0 0.1
2017-Sep-13 16:34N 31°60' W 080°21'0 0.1
2017-Sep-13 16:28N 31°60' W 080°21'0 0.0
2017-Sep-13 14:57N 31°60' W 080°21'0 0.0
2017-Sep-13 14:15N 31°60' W 080°21'0 0.0
2017-Sep-13 13:57N 31°60' W 080°21'0 0.0
2017-Sep-13 13:27N 31°60' W 080°21'0 0.0
2017-Sep-13 12:57N 31°60' W 080°21'0 0.0
2017-Sep-13 12:26N 31°60' W 080°21'0 0.3
2017-Sep-13 11:56N 31°60' W 080°20'0 0.3
2017-Sep-13 11:26N 31°60' W 080°20'0 0.1
2017-Sep-13 10:56N 31°60' W 080°20'0 0.0
2017-Sep-13 10:26N 31°60' W 080°20'0 0.0
2017-Sep-13 09:55N 31°60' W 080°20'0 0.0
2017-Sep-13 09:25N 31°60' W 080°20'0 0.1
2017-Sep-13 08:55N 31°60' W 080°20'0 0.1
2017-Sep-13 08:25N 31°60' W 080°20'0 0.1
2017-Sep-13 06:00N 31°60' W 080°21'2 4.1
2017-Sep-13 05:29N 31°58' W 080°22'510.4
2017-Sep-13 05:00N 31°54' W 080°25'714.0
2017-Sep-13 04:30N 31°48' W 080°22'  

Dump ship's entire track history